sensor_id;sensor_type;location;lat;lon;timestamp;P1;durP1;ratioP1;P2;durP2;ratioP2
73672;SDS011;61972;19.480;-99.240;2023-12-14T00:02:13;3.47;;;2.22;;
73672;SDS011;61972;19.480;-99.240;2023-12-14T00:04:40;3.58;;;2.20;;
73672;SDS011;61972;19.480;-99.240;2023-12-14T00:07:06;3.28;;;2.00;;
73672;SDS011;61972;19.480;-99.240;2023-12-14T00:09:32;3.13;;;2.08;;
73672;SDS011;61972;19.480;-99.240;2023-12-14T00:11:58;2.83;;;1.90;;
73672;SDS011;61972;19.480;-99.240;2023-12-14T00:14:24;3.22;;;2.25;;
73672;SDS011;61972;19.480;-99.240;2023-12-14T00:16:51;3.25;;;1.98;;
73672;SDS011;61972;19.480;-99.240;2023-12-14T00:19:18;3.08;;;1.80;;
73672;SDS011;61972;19.480;-99.240;2023-12-14T00:21:44;2.88;;;1.95;;
73672;SDS011;61972;19.480;-99.240;2023-12-14T00:24:10;3.20;;;2.15;;
73672;SDS011;61972;19.480;-99.240;2023-12-14T00:26:36;3.58;;;2.30;;
73672;SDS011;61972;19.480;-99.240;2023-12-14T00:29:02;3.20;;;1.83;;
73672;SDS011;61972;19.480;-99.240;2023-12-14T00:31:29;2.97;;;1.80;;
73672;SDS011;61972;19.480;-99.240;2023-12-14T00:33:55;2.80;;;1.88;;
73672;SDS011;61972;19.480;-99.240;2023-12-14T00:36:21;3.05;;;1.92;;
73672;SDS011;61972;19.480;-99.240;2023-12-14T00:38:47;4.03;;;2.10;;
73672;SDS011;61972;19.480;-99.240;2023-12-14T00:41:13;3.33;;;2.08;;
73672;SDS011;61972;19.480;-99.240;2023-12-14T00:43:39;3.88;;;2.22;;
73672;SDS011;61972;19.480;-99.240;2023-12-14T00:46:05;3.72;;;2.50;;
73672;SDS011;61972;19.480;-99.240;2023-12-14T00:48:32;4.90;;;2.33;;
73672;SDS011;61972;19.480;-99.240;2023-12-14T00:50:58;4.60;;;2.33;;
73672;SDS011;61972;19.480;-99.240;2023-12-14T00:53:24;5.05;;;3.00;;
73672;SDS011;61972;19.480;-99.240;2023-12-14T00:55:50;5.03;;;2.85;;
73672;SDS011;61972;19.480;-99.240;2023-12-14T00:58:16;5.28;;;2.90;;
73672;SDS011;61972;19.480;-99.240;2023-12-14T01:00:42;4.70;;;2.97;;
73672;SDS011;61972;19.480;-99.240;2023-12-14T01:03:08;5.35;;;3.17;;
73672;SDS011;61972;19.480;-99.240;2023-12-14T01:05:34;4.28;;;2.80;;
73672;SDS011;61972;19.480;-99.240;2023-12-14T01:08:00;4.65;;;3.00;;
73672;SDS011;61972;19.480;-99.240;2023-12-14T01:10:26;6.05;;;3.40;;
73672;SDS011;61972;19.480;-99.240;2023-12-14T01:12:52;5.20;;;3.20;;
73672;SDS011;61972;19.480;-99.240;2023-12-14T01:15:19;5.35;;;3.40;;
73672;SDS011;61972;19.480;-99.240;2023-12-14T01:17:45;5.47;;;3.55;;
73672;SDS011;61972;19.480;-99.240;2023-12-14T01:20:11;5.70;;;3.40;;
73672;SDS011;61972;19.480;-99.240;2023-12-14T01:22:37;6.13;;;3.13;;
73672;SDS011;61972;19.480;-99.240;2023-12-14T01:25:03;5.47;;;3.43;;
73672;SDS011;61972;19.480;-99.240;2023-12-14T01:27:29;6.40;;;3.20;;
73672;SDS011;61972;19.480;-99.240;2023-12-14T01:29:55;5.70;;;3.10;;
73672;SDS011;61972;19.480;-99.240;2023-12-14T01:32:22;5.53;;;3.20;;
73672;SDS011;61972;19.480;-99.240;2023-12-14T01:34:48;5.80;;;3.10;;
73672;SDS011;61972;19.480;-99.240;2023-12-14T01:37:14;6.35;;;3.33;;
73672;SDS011;61972;19.480;-99.240;2023-12-14T01:39:40;5.70;;;3.17;;
73672;SDS011;61972;19.480;-99.240;2023-12-14T01:42:06;4.75;;;2.72;;
73672;SDS011;61972;19.480;-99.240;2023-12-14T01:44:32;6.63;;;3.53;;
73672;SDS011;61972;19.480;-99.240;2023-12-14T01:46:59;4.75;;;2.95;;
73672;SDS011;61972;19.480;-99.240;2023-12-14T01:49:25;5.23;;;3.37;;
73672;SDS011;61972;19.480;-99.240;2023-12-14T01:51:51;4.57;;;2.95;;
73672;SDS011;61972;19.480;-99.240;2023-12-14T01:54:17;6.60;;;3.20;;
73672;SDS011;61972;19.480;-99.240;2023-12-14T01:56:43;5.57;;;3.20;;
73672;SDS011;61972;19.480;-99.240;2023-12-14T01:59:11;5.53;;;2.80;;
73672;SDS011;61972;19.480;-99.240;2023-12-14T02:01:42;5.67;;;3.40;;
73672;SDS011;61972;19.480;-99.240;2023-12-14T02:04:10;5.53;;;2.95;;
73672;SDS011;61972;19.480;-99.240;2023-12-14T02:06:39;4.45;;;2.72;;
73672;SDS011;61972;19.480;-99.240;2023-12-14T02:09:06;5.20;;;3.17;;
73672;SDS011;61972;19.480;-99.240;2023-12-14T02:11:32;4.43;;;2.80;;
73672;SDS011;61972;19.480;-99.240;2023-12-14T02:14:02;4.97;;;3.20;;
73672;SDS011;61972;19.480;-99.240;2023-12-14T02:16:30;5.03;;;2.95;;
73672;SDS011;61972;19.480;-99.240;2023-12-14T02:18:57;4.50;;;2.97;;
73672;SDS011;61972;19.480;-99.240;2023-12-14T02:21:23;4.35;;;2.70;;
73672;SDS011;61972;19.480;-99.240;2023-12-14T02:23:49;6.28;;;3.10;;
73672;SDS011;61972;19.480;-99.240;2023-12-14T02:26:15;5.05;;;3.20;;
73672;SDS011;61972;19.480;-99.240;2023-12-14T02:28:41;5.00;;;2.95;;
73672;SDS011;61972;19.480;-99.240;2023-12-14T02:31:07;4.47;;;2.78;;
73672;SDS011;61972;19.480;-99.240;2023-12-14T02:33:33;4.55;;;3.00;;
73672;SDS011;61972;19.480;-99.240;2023-12-14T02:36:00;5.28;;;2.88;;
73672;SDS011;61972;19.480;-99.240;2023-12-14T02:38:26;4.80;;;3.20;;
73672;SDS011;61972;19.480;-99.240;2023-12-14T02:40:52;4.78;;;2.45;;
73672;SDS011;61972;19.480;-99.240;2023-12-14T02:43:18;4.50;;;2.92;;
73672;SDS011;61972;19.480;-99.240;2023-12-14T02:45:45;4.43;;;2.50;;
73672;SDS011;61972;19.480;-99.240;2023-12-14T02:48:11;5.43;;;2.38;;
73672;SDS011;61972;19.480;-99.240;2023-12-14T02:50:38;4.70;;;2.83;;
73672;SDS011;61972;19.480;-99.240;2023-12-14T02:53:04;5.90;;;3.10;;
73672;SDS011;61972;19.480;-99.240;2023-12-14T02:55:30;4.85;;;2.80;;
73672;SDS011;61972;19.480;-99.240;2023-12-14T02:57:56;5.53;;;2.78;;
73672;SDS011;61972;19.480;-99.240;2023-12-14T03:00:22;3.90;;;2.60;;
73672;SDS011;61972;19.480;-99.240;2023-12-14T03:02:48;4.07;;;2.30;;
73672;SDS011;61972;19.480;-99.240;2023-12-14T03:05:14;4.28;;;2.22;;
73672;SDS011;61972;19.480;-99.240;2023-12-14T03:07:40;5.15;;;2.50;;
73672;SDS011;61972;19.480;-99.240;2023-12-14T03:10:07;4.50;;;2.55;;
73672;SDS011;61972;19.480;-99.240;2023-12-14T03:12:33;4.47;;;2.70;;
73672;SDS011;61972;19.480;-99.240;2023-12-14T03:14:59;3.83;;;2.45;;
73672;SDS011;61972;19.480;-99.240;2023-12-14T03:17:25;6.35;;;3.00;;
73672;SDS011;61972;19.480;-99.240;2023-12-14T03:19:51;4.18;;;2.40;;
73672;SDS011;61972;19.480;-99.240;2023-12-14T03:22:17;4.20;;;2.55;;
73672;SDS011;61972;19.480;-99.240;2023-12-14T03:24:43;4.15;;;2.60;;
73672;SDS011;61972;19.480;-99.240;2023-12-14T03:27:09;4.60;;;2.65;;
73672;SDS011;61972;19.480;-99.240;2023-12-14T03:29:35;4.43;;;2.65;;
73672;SDS011;61972;19.480;-99.240;2023-12-14T03:32:02;4.63;;;2.72;;
73672;SDS011;61972;19.480;-99.240;2023-12-14T03:34:28;4.57;;;2.60;;
73672;SDS011;61972;19.480;-99.240;2023-12-14T03:36:54;3.83;;;2.50;;
73672;SDS011;61972;19.480;-99.240;2023-12-14T03:39:20;5.20;;;2.42;;
73672;SDS011;61972;19.480;-99.240;2023-12-14T03:41:46;4.68;;;2.85;;
73672;SDS011;61972;19.480;-99.240;2023-12-14T03:44:12;3.67;;;2.58;;
73672;SDS011;61972;19.480;-99.240;2023-12-14T03:46:38;3.78;;;2.47;;
73672;SDS011;61972;19.480;-99.240;2023-12-14T03:49:04;4.15;;;2.63;;
73672;SDS011;61972;19.480;-99.240;2023-12-14T03:51:31;4.05;;;2.60;;
73672;SDS011;61972;19.480;-99.240;2023-12-14T03:53:57;3.20;;;2.17;;
73672;SDS011;61972;19.480;-99.240;2023-12-14T03:56:23;4.30;;;2.70;;
73672;SDS011;61972;19.480;-99.240;2023-12-14T03:58:49;4.07;;;2.47;;
73672;SDS011;61972;19.480;-99.240;2023-12-14T04:01:19;4.20;;;2.60;;
73672;SDS011;61972;19.480;-99.240;2023-12-14T04:03:46;3.83;;;2.65;;
73672;SDS011;61972;19.480;-99.240;2023-12-14T04:06:13;3.33;;;2.30;;
73672;SDS011;61972;19.480;-99.240;2023-12-14T04:08:40;4.05;;;2.33;;
73672;SDS011;61972;19.480;-99.240;2023-12-14T04:11:07;3.90;;;2.60;;
73672;SDS011;61972;19.480;-99.240;2023-12-14T04:13:34;3.58;;;2.22;;
73672;SDS011;61972;19.480;-99.240;2023-12-14T04:16:00;3.83;;;2.35;;
73672;SDS011;61972;19.480;-99.240;2023-12-14T04:18:26;4.13;;;2.42;;
73672;SDS011;61972;19.480;-99.240;2023-12-14T04:20:53;3.55;;;2.10;;
73672;SDS011;61972;19.480;-99.240;2023-12-14T04:23:19;3.30;;;2.10;;
73672;SDS011;61972;19.480;-99.240;2023-12-14T04:25:45;3.80;;;2.25;;
73672;SDS011;61972;19.480;-99.240;2023-12-14T04:28:11;3.50;;;2.25;;
73672;SDS011;61972;19.480;-99.240;2023-12-14T04:30:37;3.42;;;2.20;;
73672;SDS011;61972;19.480;-99.240;2023-12-14T04:33:03;4.07;;;2.20;;
73672;SDS011;61972;19.480;-99.240;2023-12-14T04:35:29;3.85;;;2.55;;
73672;SDS011;61972;19.480;-99.240;2023-12-14T04:37:56;3.15;;;2.20;;
73672;SDS011;61972;19.480;-99.240;2023-12-14T04:40:22;3.58;;;2.30;;
73672;SDS011;61972;19.480;-99.240;2023-12-14T04:42:48;4.13;;;2.70;;
73672;SDS011;61972;19.480;-99.240;2023-12-14T04:45:14;3.97;;;2.22;;
73672;SDS011;61972;19.480;-99.240;2023-12-14T04:47:41;4.22;;;2.25;;
73672;SDS011;61972;19.480;-99.240;2023-12-14T04:50:08;3.95;;;2.40;;
73672;SDS011;61972;19.480;-99.240;2023-12-14T04:52:34;3.75;;;2.33;;
73672;SDS011;61972;19.480;-99.240;2023-12-14T04:55:00;3.47;;;2.20;;
73672;SDS011;61972;19.480;-99.240;2023-12-14T04:57:27;3.78;;;2.25;;
73672;SDS011;61972;19.480;-99.240;2023-12-14T04:59:53;4.00;;;2.33;;
73672;SDS011;61972;19.480;-99.240;2023-12-14T05:02:19;3.97;;;2.50;;
73672;SDS011;61972;19.480;-99.240;2023-12-14T05:04:45;4.00;;;2.25;;
73672;SDS011;61972;19.480;-99.240;2023-12-14T05:07:11;3.47;;;2.28;;
73672;SDS011;61972;19.480;-99.240;2023-12-14T05:09:37;3.55;;;2.35;;
73672;SDS011;61972;19.480;-99.240;2023-12-14T05:12:03;3.80;;;2.30;;
73672;SDS011;61972;19.480;-99.240;2023-12-14T05:14:30;3.58;;;2.38;;
73672;SDS011;61972;19.480;-99.240;2023-12-14T05:16:56;3.55;;;2.15;;
73672;SDS011;61972;19.480;-99.240;2023-12-14T05:19:22;3.35;;;2.00;;
73672;SDS011;61972;19.480;-99.240;2023-12-14T05:21:48;3.90;;;2.22;;
73672;SDS011;61972;19.480;-99.240;2023-12-14T05:24:15;2.97;;;2.22;;
73672;SDS011;61972;19.480;-99.240;2023-12-14T05:26:41;4.00;;;2.35;;
73672;SDS011;61972;19.480;-99.240;2023-12-14T05:29:07;3.55;;;2.40;;
73672;SDS011;61972;19.480;-99.240;2023-12-14T05:31:33;3.45;;;2.22;;
73672;SDS011;61972;19.480;-99.240;2023-12-14T05:33:59;3.45;;;2.30;;
73672;SDS011;61972;19.480;-99.240;2023-12-14T05:36:25;4.50;;;1.98;;
73672;SDS011;61972;19.480;-99.240;2023-12-14T05:38:51;3.80;;;2.30;;
73672;SDS011;61972;19.480;-99.240;2023-12-14T05:41:17;3.80;;;2.10;;
73672;SDS011;61972;19.480;-99.240;2023-12-14T05:43:43;4.65;;;2.28;;
73672;SDS011;61972;19.480;-99.240;2023-12-14T05:46:14;3.10;;;2.15;;
73672;SDS011;61972;19.480;-99.240;2023-12-14T05:48:46;3.30;;;2.05;;
73672;SDS011;61972;19.480;-99.240;2023-12-14T05:51:12;3.25;;;2.28;;
73672;SDS011;61972;19.480;-99.240;2023-12-14T05:53:38;3.10;;;2.13;;
73672;SDS011;61972;19.480;-99.240;2023-12-14T05:56:05;3.00;;;1.80;;
73672;SDS011;61972;19.480;-99.240;2023-12-14T05:58:31;3.10;;;1.98;;
73672;SDS011;61972;19.480;-99.240;2023-12-14T06:00:57;4.35;;;1.95;;
73672;SDS011;61972;19.480;-99.240;2023-12-14T06:03:23;3.83;;;2.38;;
73672;SDS011;61972;19.480;-99.240;2023-12-14T06:05:50;3.25;;;2.00;;
73672;SDS011;61972;19.480;-99.240;2023-12-14T06:08:16;4.68;;;2.20;;
73672;SDS011;61972;19.480;-99.240;2023-12-14T06:10:42;3.45;;;2.10;;
73672;SDS011;61972;19.480;-99.240;2023-12-14T06:13:08;3.78;;;2.22;;
73672;SDS011;61972;19.480;-99.240;2023-12-14T06:15:34;3.38;;;2.13;;
73672;SDS011;61972;19.480;-99.240;2023-12-14T06:18:00;3.20;;;1.98;;
73672;SDS011;61972;19.480;-99.240;2023-12-14T06:20:26;3.58;;;2.13;;
73672;SDS011;61972;19.480;-99.240;2023-12-14T06:22:52;3.20;;;2.15;;
73672;SDS011;61972;19.480;-99.240;2023-12-14T06:25:19;3.85;;;2.05;;
73672;SDS011;61972;19.480;-99.240;2023-12-14T06:27:45;3.60;;;2.00;;
73672;SDS011;61972;19.480;-99.240;2023-12-14T06:30:11;3.38;;;2.10;;
73672;SDS011;61972;19.480;-99.240;2023-12-14T06:32:38;3.28;;;1.95;;
73672;SDS011;61972;19.480;-99.240;2023-12-14T06:35:04;4.00;;;2.13;;
73672;SDS011;61972;19.480;-99.240;2023-12-14T06:37:31;3.38;;;2.17;;
73672;SDS011;61972;19.480;-99.240;2023-12-14T06:39:57;3.38;;;2.13;;
73672;SDS011;61972;19.480;-99.240;2023-12-14T06:42:23;3.70;;;2.38;;
73672;SDS011;61972;19.480;-99.240;2023-12-14T06:44:49;4.68;;;2.10;;
73672;SDS011;61972;19.480;-99.240;2023-12-14T06:47:15;3.28;;;1.80;;
73672;SDS011;61972;19.480;-99.240;2023-12-14T06:49:41;3.20;;;2.17;;
73672;SDS011;61972;19.480;-99.240;2023-12-14T06:52:08;3.05;;;2.08;;
73672;SDS011;61972;19.480;-99.240;2023-12-14T06:54:34;3.05;;;1.70;;
73672;SDS011;61972;19.480;-99.240;2023-12-14T06:57:04;3.63;;;1.88;;
73672;SDS011;61972;19.480;-99.240;2023-12-14T06:59:30;2.85;;;1.85;;
73672;SDS011;61972;19.480;-99.240;2023-12-14T07:02:05;3.72;;;2.20;;
73672;SDS011;61972;19.480;-99.240;2023-12-14T07:04:32;2.78;;;1.80;;
73672;SDS011;61972;19.480;-99.240;2023-12-14T07:06:58;3.22;;;1.83;;
73672;SDS011;61972;19.480;-99.240;2023-12-14T07:09:27;3.00;;;1.80;;
73672;SDS011;61972;19.480;-99.240;2023-12-14T07:11:55;3.35;;;2.10;;
73672;SDS011;61972;19.480;-99.240;2023-12-14T07:14:21;4.25;;;1.95;;
73672;SDS011;61972;19.480;-99.240;2023-12-14T07:16:48;3.42;;;2.10;;
73672;SDS011;61972;19.480;-99.240;2023-12-14T07:19:14;2.78;;;1.80;;
73672;SDS011;61972;19.480;-99.240;2023-12-14T07:21:40;3.10;;;2.10;;
73672;SDS011;61972;19.480;-99.240;2023-12-14T07:24:06;3.03;;;2.10;;
73672;SDS011;61972;19.480;-99.240;2023-12-14T07:26:33;2.78;;;1.88;;
73672;SDS011;61972;19.480;-99.240;2023-12-14T07:28:59;3.97;;;2.35;;
73672;SDS011;61972;19.480;-99.240;2023-12-14T07:31:25;3.38;;;2.10;;
73672;SDS011;61972;19.480;-99.240;2023-12-14T07:33:53;3.15;;;1.88;;
73672;SDS011;61972;19.480;-99.240;2023-12-14T07:36:22;3.28;;;1.92;;
73672;SDS011;61972;19.480;-99.240;2023-12-14T07:38:54;2.80;;;1.90;;
73672;SDS011;61972;19.480;-99.240;2023-12-14T07:41:26;3.50;;;2.10;;
73672;SDS011;61972;19.480;-99.240;2023-12-14T07:43:55;3.00;;;1.87;;
73672;SDS011;61972;19.480;-99.240;2023-12-14T07:46:22;2.70;;;1.90;;
73672;SDS011;61972;19.480;-99.240;2023-12-14T07:48:48;2.83;;;1.80;;
73672;SDS011;61972;19.480;-99.240;2023-12-14T07:51:14;3.67;;;1.85;;
73672;SDS011;61972;19.480;-99.240;2023-12-14T07:53:40;3.80;;;2.20;;
73672;SDS011;61972;19.480;-99.240;2023-12-14T07:56:08;3.20;;;1.90;;
73672;SDS011;61972;19.480;-99.240;2023-12-14T07:58:40;2.78;;;1.80;;
73672;SDS011;61972;19.480;-99.240;2023-12-14T08:01:06;2.80;;;1.80;;
73672;SDS011;61972;19.480;-99.240;2023-12-14T08:03:33;3.47;;;1.83;;
73672;SDS011;61972;19.480;-99.240;2023-12-14T08:05:59;3.40;;;2.08;;
73672;SDS011;61972;19.480;-99.240;2023-12-14T08:08:25;2.67;;;1.80;;
73672;SDS011;61972;19.480;-99.240;2023-12-14T08:10:52;3.28;;;1.80;;
73672;SDS011;61972;19.480;-99.240;2023-12-14T08:13:18;2.50;;;1.70;;
73672;SDS011;61972;19.480;-99.240;2023-12-14T08:15:44;2.70;;;1.90;;
73672;SDS011;61972;19.480;-99.240;2023-12-14T08:18:10;3.45;;;1.80;;
73672;SDS011;61972;19.480;-99.240;2023-12-14T08:20:36;2.80;;;1.90;;
73672;SDS011;61972;19.480;-99.240;2023-12-14T08:23:02;4.32;;;2.10;;
73672;SDS011;61972;19.480;-99.240;2023-12-14T08:25:28;2.65;;;1.80;;
73672;SDS011;61972;19.480;-99.240;2023-12-14T08:27:54;2.72;;;1.70;;
73672;SDS011;61972;19.480;-99.240;2023-12-14T08:30:20;2.90;;;1.80;;
73672;SDS011;61972;19.480;-99.240;2023-12-14T08:32:46;2.55;;;1.67;;
73672;SDS011;61972;19.480;-99.240;2023-12-14T08:35:13;2.55;;;1.58;;
73672;SDS011;61972;19.480;-99.240;2023-12-14T08:37:39;2.90;;;1.80;;
73672;SDS011;61972;19.480;-99.240;2023-12-14T08:40:05;2.65;;;1.67;;
73672;SDS011;61972;19.480;-99.240;2023-12-14T08:42:32;3.05;;;1.70;;
73672;SDS011;61972;19.480;-99.240;2023-12-14T08:44:59;3.00;;;1.95;;
73672;SDS011;61972;19.480;-99.240;2023-12-14T08:47:25;2.95;;;1.65;;
73672;SDS011;61972;19.480;-99.240;2023-12-14T08:49:51;2.40;;;1.50;;
73672;SDS011;61972;19.480;-99.240;2023-12-14T08:52:18;2.60;;;1.88;;
73672;SDS011;61972;19.480;-99.240;2023-12-14T08:54:44;3.03;;;1.80;;
73672;SDS011;61972;19.480;-99.240;2023-12-14T08:57:11;2.80;;;1.90;;
73672;SDS011;61972;19.480;-99.240;2023-12-14T08:59:37;3.42;;;1.98;;
73672;SDS011;61972;19.480;-99.240;2023-12-14T09:02:04;2.53;;;1.80;;
73672;SDS011;61972;19.480;-99.240;2023-12-14T09:04:30;3.63;;;1.83;;
73672;SDS011;61972;19.480;-99.240;2023-12-14T09:06:57;5.75;;;3.53;;
73672;SDS011;61972;19.480;-99.240;2023-12-14T09:09:23;5.68;;;3.25;;
73672;SDS011;61972;19.480;-99.240;2023-12-14T09:11:49;5.15;;;3.22;;
73672;SDS011;61972;19.480;-99.240;2023-12-14T09:14:15;9.43;;;3.60;;
73672;SDS011;61972;19.480;-99.240;2023-12-14T09:16:41;4.93;;;3.28;;
73672;SDS011;61972;19.480;-99.240;2023-12-14T09:19:07;5.97;;;3.13;;
73672;SDS011;61972;19.480;-99.240;2023-12-14T09:21:33;5.10;;;3.25;;
73672;SDS011;61972;19.480;-99.240;2023-12-14T09:24:00;5.43;;;3.30;;
73672;SDS011;61972;19.480;-99.240;2023-12-14T09:26:26;6.00;;;2.80;;
73672;SDS011;61972;19.480;-99.240;2023-12-14T09:28:52;6.05;;;3.50;;
73672;SDS011;61972;19.480;-99.240;2023-12-14T09:31:19;4.65;;;3.00;;
73672;SDS011;61972;19.480;-99.240;2023-12-14T09:33:45;5.20;;;3.13;;
73672;SDS011;61972;19.480;-99.240;2023-12-14T09:36:11;5.15;;;3.00;;
73672;SDS011;61972;19.480;-99.240;2023-12-14T09:38:37;5.00;;;3.25;;
73672;SDS011;61972;19.480;-99.240;2023-12-14T09:41:04;5.35;;;3.33;;
73672;SDS011;61972;19.480;-99.240;2023-12-14T09:43:32;5.18;;;2.88;;
73672;SDS011;61972;19.480;-99.240;2023-12-14T09:45:59;4.83;;;2.93;;
73672;SDS011;61972;19.480;-99.240;2023-12-14T09:48:26;5.72;;;2.67;;
73672;SDS011;61972;19.480;-99.240;2023-12-14T09:50:53;5.25;;;2.90;;
73672;SDS011;61972;19.480;-99.240;2023-12-14T09:53:19;4.72;;;2.75;;
73672;SDS011;61972;19.480;-99.240;2023-12-14T09:55:46;5.55;;;3.20;;
73672;SDS011;61972;19.480;-99.240;2023-12-14T09:58:12;4.73;;;2.70;;
73672;SDS011;61972;19.480;-99.240;2023-12-14T10:00:39;3.72;;;2.60;;
73672;SDS011;61972;19.480;-99.240;2023-12-14T10:03:29;4.80;;;2.85;;
73672;SDS011;61972;19.480;-99.240;2023-12-14T10:05:58;4.90;;;2.90;;
73672;SDS011;61972;19.480;-99.240;2023-12-14T10:08:27;4.13;;;2.45;;
73672;SDS011;61972;19.480;-99.240;2023-12-14T10:10:53;4.80;;;2.80;;
73672;SDS011;61972;19.480;-99.240;2023-12-14T10:13:21;5.25;;;2.83;;
73672;SDS011;61972;19.480;-99.240;2023-12-14T10:15:49;4.60;;;2.50;;
73672;SDS011;61972;19.480;-99.240;2023-12-14T10:18:24;4.45;;;2.63;;
73672;SDS011;61972;19.480;-99.240;2023-12-14T10:20:51;4.68;;;2.40;;
73672;SDS011;61972;19.480;-99.240;2023-12-14T10:23:18;5.03;;;2.90;;
73672;SDS011;61972;19.480;-99.240;2023-12-14T10:25:44;4.80;;;2.85;;
73672;SDS011;61972;19.480;-99.240;2023-12-14T10:28:12;5.28;;;2.67;;
73672;SDS011;61972;19.480;-99.240;2023-12-14T10:30:41;5.05;;;2.65;;
73672;SDS011;61972;19.480;-99.240;2023-12-14T10:33:08;4.70;;;2.70;;
73672;SDS011;61972;19.480;-99.240;2023-12-14T10:35:34;4.63;;;2.67;;
73672;SDS011;61972;19.480;-99.240;2023-12-14T10:38:04;5.57;;;2.80;;
73672;SDS011;61972;19.480;-99.240;2023-12-14T10:40:32;4.15;;;2.50;;
73672;SDS011;61972;19.480;-99.240;2023-12-14T10:42:59;4.93;;;2.58;;
73672;SDS011;61972;19.480;-99.240;2023-12-14T10:45:29;4.57;;;2.60;;
73672;SDS011;61972;19.480;-99.240;2023-12-14T10:47:58;5.10;;;2.97;;
73672;SDS011;61972;19.480;-99.240;2023-12-14T10:50:29;4.03;;;2.53;;
73672;SDS011;61972;19.480;-99.240;2023-12-14T10:52:59;4.93;;;2.70;;
73672;SDS011;61972;19.480;-99.240;2023-12-14T10:55:44;4.43;;;2.60;;
73672;SDS011;61972;19.480;-99.240;2023-12-14T10:58:12;4.10;;;2.40;;
73672;SDS011;61972;19.480;-99.240;2023-12-14T11:00:39;4.47;;;2.57;;
73672;SDS011;61972;19.480;-99.240;2023-12-14T11:03:07;4.25;;;2.60;;
73672;SDS011;61972;19.480;-99.240;2023-12-14T11:05:40;4.70;;;2.80;;
73672;SDS011;61972;19.480;-99.240;2023-12-14T11:08:07;4.15;;;2.42;;
73672;SDS011;61972;19.480;-99.240;2023-12-14T11:10:41;4.88;;;2.70;;
73672;SDS011;61972;19.480;-99.240;2023-12-14T11:13:09;4.33;;;2.47;;
73672;SDS011;61972;19.480;-99.240;2023-12-14T11:15:39;4.20;;;2.40;;
73672;SDS011;61972;19.480;-99.240;2023-12-14T11:23:12;4.28;;;2.50;;
73672;SDS011;61972;19.480;-99.240;2023-12-14T11:25:53;4.10;;;2.40;;
73672;SDS011;61972;19.480;-99.240;2023-12-14T11:28:22;4.05;;;2.58;;
73672;SDS011;61972;19.480;-99.240;2023-12-14T11:30:48;4.00;;;2.45;;
73672;SDS011;61972;19.480;-99.240;2023-12-14T11:33:17;3.90;;;2.40;;
73672;SDS011;61972;19.480;-99.240;2023-12-14T11:35:43;4.43;;;2.67;;
73672;SDS011;61972;19.480;-99.240;2023-12-14T11:38:09;4.40;;;2.70;;
73672;SDS011;61972;19.480;-99.240;2023-12-14T11:40:38;4.00;;;2.40;;
73672;SDS011;61972;19.480;-99.240;2023-12-14T11:43:05;3.60;;;2.20;;
73672;SDS011;61972;19.480;-99.240;2023-12-14T11:45:35;3.97;;;2.33;;
73672;SDS011;61972;19.480;-99.240;2023-12-14T11:48:08;4.82;;;2.72;;
73672;SDS011;61972;19.480;-99.240;2023-12-14T11:50:40;4.60;;;2.60;;
73672;SDS011;61972;19.480;-99.240;2023-12-14T11:53:08;4.60;;;2.50;;
73672;SDS011;61972;19.480;-99.240;2023-12-14T11:55:35;4.25;;;2.10;;
73672;SDS011;61972;19.480;-99.240;2023-12-14T11:58:03;4.10;;;2.30;;
73672;SDS011;61972;19.480;-99.240;2023-12-14T12:00:30;4.07;;;2.40;;
73672;SDS011;61972;19.480;-99.240;2023-12-14T12:03:11;4.40;;;2.40;;
73672;SDS011;61972;19.480;-99.240;2023-12-14T12:05:38;4.65;;;2.53;;
73672;SDS011;61972;19.480;-99.240;2023-12-14T12:08:05;3.60;;;2.15;;
73672;SDS011;61972;19.480;-99.240;2023-12-14T12:10:32;4.03;;;2.25;;
73672;SDS011;61972;19.480;-99.240;2023-12-14T12:13:00;4.68;;;2.42;;
73672;SDS011;61972;19.480;-99.240;2023-12-14T12:15:28;3.70;;;2.23;;
73672;SDS011;61972;19.480;-99.240;2023-12-14T12:17:54;3.67;;;2.33;;
73672;SDS011;61972;19.480;-99.240;2023-12-14T12:20:20;3.58;;;2.20;;
73672;SDS011;61972;19.480;-99.240;2023-12-14T12:22:46;3.72;;;2.20;;
73672;SDS011;61972;19.480;-99.240;2023-12-14T12:25:12;3.88;;;2.28;;
73672;SDS011;61972;19.480;-99.240;2023-12-14T12:27:38;4.27;;;2.30;;
73672;SDS011;61972;19.480;-99.240;2023-12-14T12:30:04;4.15;;;2.20;;
73672;SDS011;61972;19.480;-99.240;2023-12-14T12:32:31;4.40;;;2.33;;
73672;SDS011;61972;19.480;-99.240;2023-12-14T12:34:57;4.40;;;2.28;;
73672;SDS011;61972;19.480;-99.240;2023-12-14T12:37:23;4.30;;;2.40;;
73672;SDS011;61972;19.480;-99.240;2023-12-14T12:39:49;4.43;;;2.00;;
73672;SDS011;61972;19.480;-99.240;2023-12-14T12:42:15;3.60;;;2.10;;
73672;SDS011;61972;19.480;-99.240;2023-12-14T12:44:42;4.35;;;2.45;;
73672;SDS011;61972;19.480;-99.240;2023-12-14T12:47:09;4.72;;;2.30;;
73672;SDS011;61972;19.480;-99.240;2023-12-14T12:49:35;3.75;;;2.25;;
73672;SDS011;61972;19.480;-99.240;2023-12-14T12:52:01;3.77;;;2.00;;
73672;SDS011;61972;19.480;-99.240;2023-12-14T12:54:28;4.22;;;2.33;;
73672;SDS011;61972;19.480;-99.240;2023-12-14T12:56:56;4.43;;;2.58;;
73672;SDS011;61972;19.480;-99.240;2023-12-14T12:59:22;4.20;;;2.30;;
73672;SDS011;61972;19.480;-99.240;2023-12-14T13:01:48;3.55;;;2.13;;
73672;SDS011;61972;19.480;-99.240;2023-12-14T13:04:17;3.90;;;2.10;;
73672;SDS011;61972;19.480;-99.240;2023-12-14T13:06:47;3.83;;;2.35;;
73672;SDS011;61972;19.480;-99.240;2023-12-14T13:09:14;3.30;;;1.90;;
73672;SDS011;61972;19.480;-99.240;2023-12-14T13:11:44;3.80;;;2.35;;
73672;SDS011;61972;19.480;-99.240;2023-12-14T13:14:10;4.63;;;2.00;;
73672;SDS011;61972;19.480;-99.240;2023-12-14T13:16:37;3.57;;;2.23;;
73672;SDS011;61972;19.480;-99.240;2023-12-14T13:19:04;4.75;;;2.47;;
73672;SDS011;61972;19.480;-99.240;2023-12-14T13:21:32;4.25;;;2.17;;
73672;SDS011;61972;19.480;-99.240;2023-12-14T13:24:02;3.67;;;1.90;;
73672;SDS011;61972;19.480;-99.240;2023-12-14T13:26:28;4.18;;;2.40;;
73672;SDS011;61972;19.480;-99.240;2023-12-14T13:28:54;4.50;;;2.40;;
73672;SDS011;61972;19.480;-99.240;2023-12-14T13:31:21;3.58;;;2.20;;
73672;SDS011;61972;19.480;-99.240;2023-12-14T13:33:47;3.92;;;2.13;;
73672;SDS011;61972;19.480;-99.240;2023-12-14T13:36:15;4.22;;;2.20;;
73672;SDS011;61972;19.480;-99.240;2023-12-14T13:38:41;3.55;;;2.22;;
73672;SDS011;61972;19.480;-99.240;2023-12-14T13:41:08;3.93;;;2.40;;
73672;SDS011;61972;19.480;-99.240;2023-12-14T13:43:35;4.18;;;2.40;;
73672;SDS011;61972;19.480;-99.240;2023-12-14T13:46:01;3.72;;;2.00;;
73672;SDS011;61972;19.480;-99.240;2023-12-14T13:48:27;4.15;;;2.30;;
73672;SDS011;61972;19.480;-99.240;2023-12-14T13:50:54;3.92;;;2.05;;
73672;SDS011;61972;19.480;-99.240;2023-12-14T13:53:21;3.83;;;2.20;;
73672;SDS011;61972;19.480;-99.240;2023-12-14T13:55:47;3.92;;;2.22;;
73672;SDS011;61972;19.480;-99.240;2023-12-14T13:58:14;3.60;;;1.90;;
73672;SDS011;61972;19.480;-99.240;2023-12-14T14:00:41;4.32;;;2.15;;
73672;SDS011;61972;19.480;-99.240;2023-12-14T14:03:10;3.60;;;2.08;;
73672;SDS011;61972;19.480;-99.240;2023-12-14T14:05:36;3.87;;;2.20;;
73672;SDS011;61972;19.480;-99.240;2023-12-14T14:08:03;4.30;;;2.10;;
73672;SDS011;61972;19.480;-99.240;2023-12-14T14:10:29;3.40;;;1.90;;
73672;SDS011;61972;19.480;-99.240;2023-12-14T14:12:55;3.80;;;2.00;;
73672;SDS011;61972;19.480;-99.240;2023-12-14T14:15:21;3.65;;;2.08;;
73672;SDS011;61972;19.480;-99.240;2023-12-14T14:17:48;3.77;;;2.20;;
73672;SDS011;61972;19.480;-99.240;2023-12-14T14:20:17;3.45;;;2.00;;
73672;SDS011;61972;19.480;-99.240;2023-12-14T14:22:44;3.40;;;1.80;;
73672;SDS011;61972;19.480;-99.240;2023-12-14T14:25:10;3.97;;;2.20;;